Airport ICAO


14:34 UTC

8°C

Scattered clouds


An affordable passengers' Moving Map for your aircraft. Made for the iPad and the iPhone
More information here

EGKA Shoreham


Shoreham By Sea UNITED KINGDOM   VFR


METAR EGKA 241420Z 03003KT 9999 SCT030 08/05 Q1011 0h14min

TAF EGKA 241353Z 2415/2420 32004KT 9999 SCT030 0h41min





NOTAMS

OPEN